Nevsehir, Turkey
Current Conditions -  °F | °C
As of 6:20 PM on Tuesday 21 Oct 2014 (Local Time) from LTAZ Reporting Station
Clear Clear  
Wind Chill: 55°   Ceiling: Unl
Heat Index: 55°   Visibility: 6mi
Dew Point: 19°   Wind: 1mph
Humidity: 25%   Direction: 220°SW
Pressure: 30.06"   Gusts: NA
Location:  38.63°N, 34.72°E
Report Text: LTAZ 211520Z 22001KT CAVOK 13/M07 Q1018
Loading
Personal Weather Stations






























Interactive Weather Map
Tropical Storm Tracking
New forecast layout! Learn more

10-Day Weather Forecast

Advertisements
Track Severe Weather on mobile